Brackett, Wisconsin
Current Conditions -  °F | °C
As of 7:56 AM on Wednesday 22 Oct 2014 (Local Time) from KEAU Reporting Station
Clear Clear  
Wind Chill:   Ceiling: Unl
Heat Index:   Visibility: 10mi
Dew Point:   Wind: 5mph
Humidity: 89%   Direction: 140°SE
Pressure: 30.29"   Gusts: NA
Location:  44.7441°N, 91.2945°W
Report Text: KEAU 221256Z 14004KT 10SM CLR 02/01 A3029 RMK AO2 SLP263 T00220006
Loading
Personal Weather Stations






























Interactive Weather Map
Tropical Storm Tracking
New forecast layout! Learn more

10-Day Weather Forecast

Advertisements
Track Severe Weather on mobile